createdAt,value
2023-04-18T00:01:11.289Z,100791.25
2023-04-18T00:03:40.603Z,100791.50
2023-04-18T00:06:07.250Z,100790.41
2023-04-18T00:08:34.056Z,100783.34
2023-04-18T00:11:00.388Z,100787.41
2023-04-18T00:13:28.506Z,100788.88
2023-04-18T00:15:55.170Z,100791.53
2023-04-18T00:18:22.175Z,100788.66
2023-04-18T00:20:48.594Z,100788.88
2023-04-18T00:23:15.129Z,100783.38
2023-04-18T00:25:41.515Z,100785.03
2023-04-18T00:28:08.144Z,100776.38
2023-04-18T00:30:34.629Z,100777.84
2023-04-18T00:33:01.659Z,100782.91
2023-04-18T00:35:28.395Z,100781.81
2023-04-18T00:37:55.081Z,100774.13
2023-04-18T00:40:21.787Z,100779.78
2023-04-18T00:42:48.489Z,100778.34
2023-04-18T00:45:14.998Z,100774.00
2023-04-18T00:47:41.698Z,100776.41
2023-04-18T00:50:09.962Z,100781.94
2023-04-18T00:52:36.894Z,100780.28
2023-04-18T00:55:06.629Z,100775.00
2023-04-18T00:57:33.212Z,100778.84
2023-04-18T01:00:01.372Z,100774.75
2023-04-18T01:02:31.135Z,100772.81
2023-04-18T01:04:58.627Z,100777.41
2023-04-18T01:07:26.504Z,100766.38
2023-04-18T01:09:53.905Z,100767.31
2023-04-18T01:12:20.397Z,100766.38
2023-04-18T01:14:46.757Z,100765.66
2023-04-18T01:17:13.329Z,100761.09
2023-04-18T01:19:40.443Z,100769.97
2023-04-18T01:22:07.121Z,100769.25
2023-04-18T01:24:33.786Z,100773.59
2023-04-18T01:27:02.060Z,100772.13
2023-04-18T01:29:29.001Z,100763.97
2023-04-18T01:31:55.625Z,100767.91
2023-04-18T01:34:22.020Z,100772.84
2023-04-18T01:36:48.487Z,100769.97
2023-04-18T01:39:15.091Z,100756.53
2023-04-18T01:41:42.113Z,100760.38
2023-04-18T01:44:08.569Z,100758.19
2023-04-18T01:46:36.059Z,100759.16
2023-04-18T01:49:02.908Z,100763.97
2023-04-18T01:51:29.269Z,100763.00
2023-04-18T01:53:55.705Z,100763.47
2023-04-18T01:56:22.294Z,100763.97
2023-04-18T01:58:48.784Z,100770.22
2023-04-18T02:01:15.699Z,100758.06
2023-04-18T02:03:42.284Z,100772.25
2023-04-18T02:06:08.756Z,100769.13
2023-04-18T02:08:35.899Z,100773.22
2023-04-18T02:11:02.882Z,100763.50
2023-04-18T02:13:29.555Z,100772.34
2023-04-18T02:15:55.896Z,100761.91
2023-04-18T02:18:24.690Z,100755.56
2023-04-18T02:20:52.078Z,100767.94
2023-04-18T02:23:19.071Z,100761.44
2023-04-18T02:25:45.691Z,100768.53
2023-04-18T02:28:12.046Z,100760.72
2023-04-18T02:30:38.472Z,100769.97
2023-04-18T02:33:04.970Z,100769.38
2023-04-18T02:35:31.707Z,100773.81
2023-04-18T02:37:58.114Z,100775.00
2023-04-18T02:40:24.854Z,100772.59
2023-04-18T02:42:51.221Z,100758.69
2023-04-18T02:45:17.710Z,100760.59
2023-04-18T02:47:54.489Z,100755.22
2023-04-18T02:50:22.240Z,100759.16
2023-04-18T02:52:48.929Z,100764.44
2023-04-18T02:55:15.280Z,100759.16
2023-04-18T02:57:41.754Z,100772.81
2023-04-18T03:00:08.904Z,100768.84
2023-04-18T03:02:35.776Z,100773.44
2023-04-18T03:05:02.280Z,100782.91
2023-04-18T03:07:28.928Z,100776.69
2023-04-18T03:09:55.373Z,100776.56
2023-04-18T03:12:21.805Z,100775.47
2023-04-18T03:14:48.282Z,100782.31
2023-04-18T03:17:14.770Z,100774.75
2023-04-18T03:19:41.127Z,100786.88
2023-04-18T03:22:07.808Z,100782.44
2023-04-18T03:24:34.152Z,100782.44
2023-04-18T03:27:00.791Z,100775.56
2023-04-18T03:29:27.470Z,100776.63
2023-04-18T03:31:53.932Z,100790.28
2023-04-18T03:34:20.477Z,100774.69
2023-04-18T03:36:48.190Z,100784.06
2023-04-18T03:39:14.822Z,100787.91
2023-04-18T03:41:41.502Z,100785.63
2023-04-18T03:44:07.935Z,100779.25
2023-04-18T03:46:35.172Z,100783.31
2023-04-18T03:49:01.767Z,100787.03
2023-04-18T03:51:33.792Z,100784.25
2023-04-18T03:54:00.217Z,100784.78
2023-04-18T03:56:26.930Z,100785.47
2023-04-18T03:58:53.345Z,100798.66
2023-04-18T04:01:19.824Z,100797.31
2023-04-18T04:03:46.754Z,100794.41
2023-04-18T04:06:13.596Z,100806.78
2023-04-18T04:08:40.239Z,100801.25
2023-04-18T04:11:06.746Z,100805.09
2023-04-18T04:13:33.218Z,100803.88
2023-04-18T04:15:59.662Z,100814.44
2023-04-18T04:18:30.916Z,100805.66
2023-04-18T04:20:59.177Z,100802.19
2023-04-18T04:23:26.702Z,100806.09
2023-04-18T04:25:53.706Z,100817.03
2023-04-18T04:28:23.929Z,100810.25
2023-04-18T04:30:53.791Z,100815.16
2023-04-18T04:33:21.044Z,100821.69
2023-04-18T04:35:48.020Z,100825.59
2023-04-18T04:38:15.362Z,100817.69
2023-04-18T04:40:42.468Z,100831.88
2023-04-18T04:43:12.845Z,100834.00
2023-04-18T04:45:42.178Z,100826.09
2023-04-18T04:48:09.605Z,100825.66
2023-04-18T04:50:38.171Z,100836.63
2023-04-18T04:53:06.256Z,100835.88
2023-04-18T04:55:33.123Z,100839.13
2023-04-18T04:57:59.644Z,100837.75
2023-04-18T05:00:26.168Z,100841.75
2023-04-18T05:02:55.406Z,100854.00
2023-04-18T05:05:22.348Z,100846.94
2023-04-18T05:07:48.708Z,100845.13
2023-04-18T05:10:15.148Z,100847.63
2023-04-18T05:12:41.615Z,100841.69
2023-04-18T05:15:08.215Z,100855.09
2023-04-18T05:17:34.765Z,100854.47
2023-04-18T05:20:01.241Z,100850.06
2023-04-18T05:22:27.959Z,100861.78
2023-04-18T05:24:54.316Z,100859.38
2023-04-18T05:27:21.571Z,100855.28
2023-04-18T05:29:49.312Z,100862.00
2023-04-18T05:32:16.322Z,100862.84
2023-04-18T05:34:43.279Z,100855.50
2023-04-18T05:37:09.705Z,100855.28
2023-04-18T05:39:36.608Z,100858.47
2023-04-18T05:42:03.463Z,100861.38
2023-04-18T05:44:29.931Z,100862.22
2023-04-18T05:46:56.398Z,100860.56
2023-04-18T05:49:23.089Z,100864.97
2023-04-18T05:51:49.988Z,100865.59
2023-04-18T05:54:16.949Z,100861.38
2023-04-18T05:56:43.390Z,100868.88
2023-04-18T05:59:09.726Z,100871.09
2023-04-18T06:01:36.426Z,100870.34
2023-04-18T06:04:02.957Z,100868.56
2023-04-18T06:06:29.488Z,100869.06
2023-04-18T06:08:55.873Z,100869.84
2023-04-18T06:11:22.911Z,100868.56
2023-04-18T06:13:49.440Z,100880.78
2023-04-18T06:16:15.997Z,100877.19
2023-04-18T06:18:42.467Z,100880.56
2023-04-18T06:21:09.249Z,100871.91
2023-04-18T06:23:35.611Z,100875.53
2023-04-18T06:26:02.342Z,100883.22
2023-04-18T06:28:28.731Z,100885.31
2023-04-18T06:30:55.154Z,100880.66
2023-04-18T06:33:21.516Z,100893.16
2023-04-18T06:35:48.115Z,100894.84
2023-04-18T06:38:14.780Z,100893.44
2023-04-18T06:40:41.492Z,100900.44
2023-04-18T06:43:08.158Z,100894.31
2023-04-18T06:45:35.399Z,100908.88
2023-04-18T06:48:05.867Z,100902.97
2023-04-18T06:50:32.428Z,100895.06
2023-04-18T06:52:58.976Z,100899.19
2023-04-18T06:55:25.445Z,100896.53
2023-04-18T06:57:51.928Z,100889.78
2023-04-18T07:00:18.490Z,100895.50
2023-04-18T07:02:45.143Z,100906.34
2023-04-18T07:05:11.681Z,100896.31
2023-04-18T07:07:38.168Z,100883.56
2023-04-18T07:10:06.212Z,100885.25
2023-04-18T07:12:32.612Z,100886.94
2023-04-18T07:14:59.061Z,100896.97
2023-04-18T07:17:25.838Z,100897.34
2023-04-18T07:19:52.384Z,100891.16
2023-04-18T07:22:18.730Z,100897.88
2023-04-18T07:24:45.191Z,100892.75
2023-04-18T07:27:11.599Z,100898.72
2023-04-18T07:29:38.063Z,100901.69
2023-04-18T07:32:06.116Z,100911.69
2023-04-18T07:34:36.137Z,100914.44
2023-04-18T07:37:02.618Z,100910.75
2023-04-18T07:39:29.006Z,100908.44
2023-04-18T07:41:55.418Z,100916.69
2023-04-18T07:44:21.895Z,100914.09
2023-04-18T07:46:48.442Z,100916.25
2023-04-18T07:49:15.147Z,100908.34
2023-04-18T07:51:41.690Z,100913.38
2023-04-18T07:54:08.426Z,100919.50
2023-04-18T07:56:34.822Z,100914.97
2023-04-18T07:59:01.681Z,100919.34
2023-04-18T08:01:28.102Z,100927.41
2023-04-18T08:03:56.584Z,100906.94
2023-04-18T08:06:23.254Z,100920.34
2023-04-18T08:08:49.749Z,100906.75
2023-04-18T08:11:16.557Z,100915.97
2023-04-18T08:13:43.274Z,100912.59
2023-04-18T08:16:09.737Z,100920.19
2023-04-18T08:18:36.438Z,100913.56
2023-04-18T08:21:02.812Z,100913.41
2023-04-18T08:23:29.164Z,100908.28
2023-04-18T08:25:55.678Z,100916.28
2023-04-18T08:28:22.331Z,100910.25
2023-04-18T08:30:49.288Z,100919.72
2023-04-18T08:33:16.169Z,100917.97
2023-04-18T08:35:42.975Z,100925.69
2023-04-18T08:38:09.831Z,100920.41
2023-04-18T08:40:37.257Z,100918.47
2023-04-18T08:43:09.340Z,100909.41
2023-04-18T08:45:36.888Z,100912.31
2023-04-18T08:48:03.909Z,100924.03
2023-04-18T08:50:30.533Z,100914.47
2023-04-18T08:52:57.020Z,100931.50
2023-04-18T08:55:23.473Z,100922.41
2023-04-18T08:57:54.043Z,100928.66
2023-04-18T09:00:20.619Z,100925.84
2023-04-18T09:02:47.455Z,100931.28
2023-04-18T09:05:16.733Z,100926.00
2023-04-18T09:07:43.227Z,100919.84
2023-04-18T09:10:10.172Z,100929.03
2023-04-18T09:12:52.088Z,100918.53
2023-04-18T09:15:20.437Z,100925.56
2023-04-18T09:17:54.037Z,100923.81
2023-04-18T09:20:36.055Z,100931.59
2023-04-18T09:23:03.872Z,100928.66
2023-04-18T09:25:41.591Z,100925.56
2023-04-18T09:28:29.035Z,100926.00
2023-04-18T09:30:57.299Z,100928.34
2023-04-18T09:33:33.930Z,100920.34
2023-04-18T09:36:19.209Z,100932.69
2023-04-18T09:38:46.750Z,100932.56
2023-04-18T09:41:15.883Z,100930.78
2023-04-18T09:43:43.126Z,100932.97
2023-04-18T09:46:09.684Z,100932.31
2023-04-18T09:48:36.649Z,100935.41
2023-04-18T09:51:22.018Z,100930.13
2023-04-18T09:53:50.494Z,100937.16
2023-04-18T09:56:25.920Z,100928.94
2023-04-18T09:59:01.518Z,100933.25
2023-04-18T10:01:29.807Z,100926.06
2023-04-18T10:03:57.714Z,100928.50
2023-04-18T10:06:27.368Z,100922.00
2023-04-18T10:08:55.331Z,100932.53
2023-04-18T10:11:23.616Z,100928.50
2023-04-18T10:13:53.408Z,100932.94
2023-04-18T10:16:20.729Z,100924.63
2023-04-18T10:18:49.746Z,100926.31
2023-04-18T10:21:16.648Z,100929.00
2023-04-18T10:23:43.113Z,100928.72
2023-04-18T10:26:10.963Z,100926.81
2023-04-18T10:28:53.690Z,100929.00
2023-04-18T10:31:28.247Z,100923.00
2023-04-18T10:36:28.902Z,100925.72
2023-04-18T10:39:00.544Z,100927.50
2023-04-18T10:41:28.909Z,100929.94
2023-04-18T10:44:08.672Z,100927.94
2023-04-18T10:46:39.388Z,100918.81
2023-04-18T10:49:18.144Z,100918.28
2023-04-18T10:51:49.536Z,100915.41
2023-04-18T10:54:28.560Z,100916.94
2023-04-18T10:56:56.847Z,100920.94
2023-04-18T10:59:25.129Z,100914.94
2023-04-18T11:01:57.492Z,100916.94
2023-04-18T11:04:25.406Z,100915.03
2023-04-18T11:06:55.853Z,100922.22
2023-04-18T11:09:22.591Z,100926.22
2023-04-18T11:12:08.916Z,100929.81
2023-04-18T11:14:45.464Z,100925.97
2023-04-18T11:17:23.929Z,100929.91
2023-04-18T11:20:01.382Z,100921.78
2023-04-18T11:22:27.901Z,100928.16
2023-04-18T11:24:59.145Z,100929.53
2023-04-18T11:27:28.677Z,100923.09
2023-04-18T11:29:56.393Z,100930.50
2023-04-18T11:32:24.433Z,100931.25
2023-04-18T11:34:53.215Z,100926.22
2023-04-18T11:37:20.112Z,100923.25
2023-04-18T11:39:46.726Z,100922.88
2023-04-18T11:42:13.538Z,100929.28
2023-04-18T11:44:40.224Z,100925.22
2023-04-18T11:47:26.564Z,100926.28
2023-04-18T11:50:07.149Z,100925.78
2023-04-18T11:52:35.086Z,100923.16
2023-04-18T11:55:21.387Z,100928.66
2023-04-18T11:58:01.416Z,100940.00
2023-04-18T12:00:34.008Z,100925.38
2023-04-18T12:03:01.985Z,100925.47
2023-04-18T12:05:30.962Z,100929.69
2023-04-18T12:08:13.270Z,100918.78
2023-04-18T12:10:57.515Z,100925.50
2023-04-18T12:13:26.726Z,100939.44
2023-04-18T12:15:54.153Z,100934.75
2023-04-18T12:18:21.243Z,100930.19
2023-04-18T12:20:54.434Z,100930.94
2023-04-18T12:23:38.900Z,100925.72
2023-04-18T12:26:23.659Z,100926.38
2023-04-18T12:28:51.203Z,100929.00
2023-04-18T12:31:18.045Z,100928.28
2023-04-18T12:33:44.612Z,100930.47
2023-04-18T12:36:11.115Z,100927.09
2023-04-18T12:38:37.551Z,100926.25
2023-04-18T12:41:04.267Z,100921.81
2023-04-18T12:43:30.916Z,100927.31
2023-04-18T12:45:57.695Z,100924.69
2023-04-18T12:48:24.052Z,100927.34
2023-04-18T12:50:50.480Z,100921.19
2023-04-18T12:53:17.179Z,100933.09
2023-04-18T12:55:43.599Z,100926.34
2023-04-18T12:58:09.954Z,100927.31
2023-04-18T13:00:36.370Z,100916.50
2023-04-18T13:03:03.013Z,100918.44
2023-04-18T13:05:33.145Z,100926.84
2023-04-18T13:08:12.744Z,100928.03
2023-04-18T13:10:42.393Z,100923.00
2023-04-18T13:13:08.762Z,100923.00
2023-04-18T13:15:35.219Z,100922.31
2023-04-18T13:18:05.097Z,100923.75
2023-04-18T13:20:32.251Z,100915.19
2023-04-18T13:22:58.618Z,100919.91
2023-04-18T13:25:26.380Z,100914.47
2023-04-18T13:27:52.773Z,100913.50
2023-04-18T13:30:19.503Z,100911.59
2023-04-18T13:32:46.270Z,100913.53
2023-04-18T13:35:12.691Z,100916.53
2023-04-18T13:37:39.435Z,100918.47
2023-04-18T13:40:06.742Z,100920.50
2023-04-18T13:42:33.914Z,100919.66
2023-04-18T13:45:00.461Z,100928.56
2023-04-18T13:47:27.154Z,100926.97
2023-04-18T13:49:53.604Z,100919.19
2023-04-18T13:52:20.241Z,100915.22
2023-04-18T13:54:47.027Z,100922.03
2023-04-18T13:57:14.572Z,100924.09
2023-04-18T13:59:41.183Z,100919.06
2023-04-18T14:02:10.786Z,100917.13
2023-04-18T14:04:37.510Z,100915.19
2023-04-18T14:07:06.172Z,100910.88
2023-04-18T14:09:32.651Z,100911.72
2023-04-18T14:11:59.124Z,100907.63
2023-04-18T14:14:25.792Z,100918.81
2023-04-18T14:16:53.521Z,100907.63
2023-04-18T14:19:19.932Z,100911.22
2023-04-18T14:21:47.598Z,100912.06
2023-04-18T14:24:14.278Z,100912.69
2023-04-18T14:26:40.749Z,100907.16
2023-04-18T14:29:07.275Z,100913.63
2023-04-18T14:31:33.687Z,100909.75
2023-04-18T14:34:00.104Z,100903.19
2023-04-18T14:36:27.185Z,100908.56
2023-04-18T14:38:54.616Z,100907.72
2023-04-18T14:41:21.079Z,100907.09
2023-04-18T14:43:47.422Z,100905.03
2023-04-18T14:46:18.331Z,100899.28
2023-04-18T14:48:46.347Z,100903.75
2023-04-18T14:51:12.984Z,100898.81
2023-04-18T14:53:39.378Z,100904.84
2023-04-18T14:56:06.329Z,100906.16
2023-04-18T14:58:32.999Z,100912.88
2023-04-18T15:00:59.416Z,100901.13
2023-04-18T15:03:26.232Z,100902.06
2023-04-18T15:05:53.201Z,100893.00
2023-04-18T15:08:19.698Z,100901.09
2023-04-18T15:10:47.473Z,100893.41
2023-04-18T15:13:13.907Z,100895.50
2023-04-18T15:15:40.379Z,100895.50
2023-04-18T15:18:08.258Z,100904.34
2023-04-18T15:20:36.044Z,100894.09
2023-04-18T15:23:02.838Z,100899.03
2023-04-18T15:25:30.364Z,100899.63
2023-04-18T15:27:58.097Z,100902.03
2023-04-18T15:30:25.203Z,100894.25
2023-04-18T15:32:52.172Z,100901.78
2023-04-18T15:35:18.792Z,100900.13
2023-04-18T15:37:45.169Z,100896.50
2023-04-18T15:40:16.030Z,100906.84
2023-04-18T15:42:43.561Z,100902.88
2023-04-18T15:45:10.832Z,100902.63
2023-04-18T15:47:37.397Z,100900.72
2023-04-18T15:50:04.378Z,100903.25
2023-04-18T15:52:30.908Z,100899.13
2023-04-18T15:54:57.806Z,100899.88
2023-04-18T15:57:24.234Z,100900.38
2023-04-18T15:59:50.647Z,100899.88
2023-04-18T16:02:17.060Z,100893.75
2023-04-18T16:04:43.548Z,100891.22
2023-04-18T16:07:12.038Z,100899.53
2023-04-18T16:09:38.541Z,100899.88
2023-04-18T16:12:05.802Z,100894.59
2023-04-18T16:14:33.380Z,100904.44
2023-04-18T16:16:59.886Z,100902.78
2023-04-18T16:19:26.547Z,100901.56
2023-04-18T16:21:52.901Z,100903.25
2023-04-18T16:24:19.298Z,100902.03
2023-04-18T16:26:45.713Z,100900.81
2023-04-18T16:29:12.377Z,100897.22
2023-04-18T16:31:38.803Z,100898.63
2023-04-18T16:34:05.313Z,100905.84
2023-04-18T16:36:34.146Z,100895.03
2023-04-18T16:39:00.635Z,100886.63
2023-04-18T16:41:27.256Z,100892.19
2023-04-18T16:43:53.949Z,100892.69
2023-04-18T16:46:20.499Z,100894.59
2023-04-18T16:48:47.020Z,100897.09
2023-04-18T16:51:13.406Z,100895.44
2023-04-18T16:53:39.775Z,100892.19
2023-04-18T16:56:07.870Z,100887.97
2023-04-18T16:58:34.336Z,100891.94
2023-04-18T17:01:04.052Z,100899.53
2023-04-18T17:03:30.648Z,100899.75
2023-04-18T17:05:57.218Z,100898.06
2023-04-18T17:08:25.753Z,100898.91
2023-04-18T17:10:52.758Z,100894.09
2023-04-18T17:13:19.198Z,100903.84
2023-04-18T17:15:45.885Z,100907.56
2023-04-18T17:18:12.430Z,100901.56
2023-04-18T17:20:38.969Z,100898.47
2023-04-18T17:23:05.350Z,100901.44
2023-04-18T17:25:31.828Z,100904.19
2023-04-18T17:27:58.361Z,100903.00
2023-04-18T17:30:24.796Z,100907.00
2023-04-18T17:32:51.255Z,100911.56
2023-04-18T17:35:17.883Z,100910.22
2023-04-18T17:37:44.324Z,100908.81
2023-04-18T17:40:11.670Z,100908.81
2023-04-18T17:42:38.234Z,100912.63
2023-04-18T17:45:07.483Z,100913.69
2023-04-18T17:47:34.541Z,100902.03
2023-04-18T17:50:00.967Z,100903.00
2023-04-18T17:52:28.490Z,100907.31
2023-04-18T17:54:55.620Z,100906.25
2023-04-18T17:57:22.927Z,100906.09
2023-04-18T17:59:49.757Z,100909.88
2023-04-18T18:02:16.511Z,100907.22
2023-04-18T18:04:42.963Z,100903.97
2023-04-18T18:07:09.370Z,100910.94
2023-04-18T18:09:35.801Z,100913.59
2023-04-18T18:12:02.581Z,100911.16
2023-04-18T18:14:28.933Z,100908.31
2023-04-18T18:16:55.943Z,100915.75
2023-04-18T18:19:22.433Z,100917.69
2023-04-18T18:21:48.813Z,100918.13
2023-04-18T18:24:15.227Z,100914.09
2023-04-18T18:26:41.733Z,100914.44
2023-04-18T18:29:11.162Z,100909.28
2023-04-18T18:31:38.558Z,100915.75
2023-04-18T18:34:05.689Z,100913.47
2023-04-18T18:36:32.173Z,100916.25
2023-04-18T18:38:58.603Z,100921.56
2023-04-18T18:41:24.990Z,100924.91
2023-04-18T18:43:51.585Z,100917.69
2023-04-18T18:46:18.227Z,100921.56
2023-04-18T18:48:44.648Z,100923.94
2023-04-18T18:51:11.547Z,100926.84
2023-04-18T18:53:40.149Z,100926.84
2023-04-18T18:56:08.544Z,100921.56
2023-04-18T18:58:35.561Z,100926.84
2023-04-18T19:01:03.243Z,100923.94
2023-04-18T19:03:29.891Z,100926.34
2023-04-18T19:05:56.651Z,100925.34
2023-04-18T19:08:23.108Z,100924.38
2023-04-18T19:10:50.519Z,100920.31
2023-04-18T19:13:18.891Z,100929.34
2023-04-18T19:15:45.383Z,100926.44
2023-04-18T19:18:12.428Z,100923.69
2023-04-18T19:20:40.353Z,100932.56
2023-04-18T19:23:06.793Z,100923.69
2023-04-18T19:25:33.211Z,100926.44
2023-04-18T19:27:59.560Z,100926.69
2023-04-18T19:30:26.278Z,100921.41
2023-04-18T19:32:52.757Z,100916.09
2023-04-18T19:35:19.226Z,100923.44
2023-04-18T19:37:45.734Z,100922.59
2023-04-18T19:40:12.373Z,100924.31
2023-04-18T19:42:38.821Z,100912.38
2023-04-18T19:45:05.923Z,100917.69
2023-04-18T19:47:33.849Z,100919.34
2023-04-18T19:50:01.098Z,100915.75
2023-04-18T19:52:27.548Z,100906.00
2023-04-18T19:54:55.051Z,100907.81
2023-04-18T19:57:21.929Z,100910.72
2023-04-18T19:59:48.287Z,100910.72
2023-04-18T20:02:14.972Z,100907.41
2023-04-18T20:04:42.138Z,100911.13
2023-04-18T20:07:09.010Z,100904.66
2023-04-18T20:09:35.378Z,100909.22
2023-04-18T20:12:02.578Z,100906.59
2023-04-18T20:14:29.724Z,100901.03
2023-04-18T20:16:56.647Z,100905.00
2023-04-18T20:19:26.748Z,100901.47
2023-04-18T20:21:53.197Z,100902.41
2023-04-18T20:24:21.094Z,100896.66
2023-04-18T20:26:47.806Z,100904.13
2023-04-18T20:29:14.425Z,100897.38
2023-04-18T20:31:42.371Z,100901.94
2023-04-18T20:34:09.742Z,100894.22
2023-04-18T20:36:41.379Z,100902.13
2023-04-18T20:39:08.826Z,100906.69
2023-04-18T20:41:36.814Z,100900.25
2023-04-18T20:44:05.164Z,100901.69
2023-04-18T20:46:32.280Z,100890.25
2023-04-18T20:48:58.851Z,100893.31
2023-04-18T20:51:26.741Z,100882.97
2023-04-18T20:53:53.120Z,100889.03
2023-04-18T20:56:20.119Z,100895.72
2023-04-18T20:58:46.522Z,100894.00
2023-04-18T21:01:12.945Z,100898.44
2023-04-18T21:03:39.480Z,100894.00
2023-04-18T21:06:06.073Z,100889.94
2023-04-18T21:08:34.656Z,100896.66
2023-04-18T21:11:01.316Z,100886.06
2023-04-18T21:13:28.007Z,100886.31
2023-04-18T21:15:56.962Z,100885.16
2023-04-18T21:18:24.054Z,100888.06
2023-04-18T21:20:52.798Z,100882.97
2023-04-18T21:23:19.491Z,100874.06
2023-04-18T21:25:45.960Z,100880.66
2023-04-18T21:28:12.503Z,100884.66
2023-04-18T21:30:38.876Z,100871.53
2023-04-18T21:33:05.393Z,100872.88
2023-04-18T21:35:31.832Z,100881.00
2023-04-18T21:37:58.270Z,100877.31
2023-04-18T21:40:26.670Z,100870.09
2023-04-18T21:42:53.029Z,100873.97
2023-04-18T21:45:19.431Z,100865.31
2023-04-18T21:47:46.219Z,100866.41
2023-04-18T21:50:12.954Z,100866.38
2023-04-18T21:52:39.504Z,100865.38
2023-04-18T21:55:06.146Z,100865.38
2023-04-18T21:57:32.533Z,100860.34
2023-04-18T21:59:58.911Z,100857.94
2023-04-18T22:02:27.028Z,100851.59
2023-04-18T22:04:53.789Z,100851.59
2023-04-18T22:07:20.232Z,100850.91
2023-04-18T22:09:46.645Z,100850.03
2023-04-18T22:12:13.988Z,100842.31
2023-04-18T22:14:41.889Z,100840.66
2023-04-18T22:17:09.230Z,100844.75
2023-04-18T22:19:35.687Z,100843.56
2023-04-18T22:22:02.112Z,100838.25
2023-04-18T22:24:28.536Z,100831.03
2023-04-18T22:26:54.992Z,100834.84
2023-04-18T22:29:21.664Z,100833.53
2023-04-18T22:31:48.140Z,100828.13
2023-04-18T22:34:14.801Z,100835.56
2023-04-18T22:36:42.671Z,100832.31
2023-04-18T22:39:09.109Z,100827.16
2023-04-18T22:41:35.500Z,100827.88
2023-04-18T22:44:01.842Z,100829.34
2023-04-18T22:46:28.646Z,100830.06
2023-04-18T22:48:55.163Z,100814.38
2023-04-18T22:51:23.328Z,100823.22
2023-04-18T22:53:49.954Z,100822.63
2023-04-18T22:56:16.315Z,100821.16
2023-04-18T22:58:42.704Z,100821.16
2023-04-18T23:01:09.109Z,100815.28
2023-04-18T23:03:35.776Z,100819.00
2023-04-18T23:06:02.242Z,100808.19
2023-04-18T23:08:28.642Z,100810.81
2023-04-18T23:10:55.035Z,100812.53
2023-04-18T23:13:21.526Z,100808.91
2023-04-18T23:15:47.948Z,100811.31
2023-04-18T23:18:14.551Z,100807.91
2023-04-18T23:20:40.925Z,100806.50
2023-04-18T23:23:07.308Z,100804.69
2023-04-18T23:25:33.775Z,100805.53
2023-04-18T23:28:00.249Z,100799.66
2023-04-18T23:30:26.655Z,100796.63
2023-04-18T23:32:53.101Z,100800.47
2023-04-18T23:35:19.569Z,100804.81
2023-04-18T23:37:46.049Z,100799.41
2023-04-18T23:40:12.465Z,100793.75
2023-04-18T23:42:38.864Z,100792.44
2023-04-18T23:45:05.944Z,100787.25
2023-04-18T23:47:32.525Z,100783.03
2023-04-18T23:49:58.917Z,100783.66
2023-04-18T23:52:25.397Z,100777.44
2023-04-18T23:54:51.889Z,100784.44
2023-04-18T23:57:18.262Z,100777.00
2023-04-18T23:59:44.943Z,100773.84
